createdAt,value
2023-05-16T00:02:16.856Z,11.80
2023-05-16T00:04:44.869Z,11.70
2023-05-16T00:07:12.781Z,11.60
2023-05-16T00:09:40.736Z,11.60
2023-05-16T00:12:08.848Z,11.70
2023-05-16T00:14:36.657Z,11.60
2023-05-16T00:17:11.815Z,11.60
2023-05-16T00:19:40.282Z,11.60
2023-05-16T00:22:08.174Z,11.70
2023-05-16T00:24:36.050Z,11.70
2023-05-16T00:27:04.280Z,11.80
2023-05-16T00:29:32.015Z,12.00
2023-05-16T00:31:59.752Z,12.00
2023-05-16T00:34:27.615Z,12.00
2023-05-16T00:36:55.888Z,11.90
2023-05-16T00:39:23.715Z,12.00
2023-05-16T00:41:51.711Z,12.00
2023-05-16T00:44:19.508Z,12.10
2023-05-16T00:46:47.647Z,12.20
2023-05-16T00:49:16.033Z,12.20
2023-05-16T00:51:43.839Z,12.20
2023-05-16T00:54:12.417Z,12.20
2023-05-16T00:56:41.381Z,12.50
2023-05-16T00:59:09.066Z,12.60
2023-05-16T01:01:37.405Z,12.50
2023-05-16T01:04:06.332Z,12.50
2023-05-16T01:06:35.890Z,12.60
2023-05-16T01:09:04.103Z,12.50
2023-05-16T01:11:40.164Z,12.10
2023-05-16T01:14:25.828Z,12.30
2023-05-16T01:17:27.983Z,12.30
2023-05-16T01:19:56.900Z,12.20
2023-05-16T01:22:48.287Z,12.20
2023-05-16T01:25:40.241Z,12.10
2023-05-16T01:28:09.136Z,12.20
2023-05-16T01:30:39.620Z,12.10
2023-05-16T01:33:09.995Z,11.90
2023-05-16T01:36:06.220Z,11.90
2023-05-16T01:39:00.586Z,12.00
2023-05-16T01:41:49.725Z,12.00
2023-05-16T01:44:43.553Z,11.90
2023-05-16T01:47:16.765Z,11.90
2023-05-16T01:49:54.365Z,11.90
2023-05-16T01:52:46.155Z,11.80
2023-05-16T01:55:44.904Z,11.80
2023-05-16T01:58:15.109Z,11.80
2023-05-16T02:00:43.786Z,11.80
2023-05-16T02:03:11.645Z,11.80
2023-05-16T02:05:39.609Z,11.70
2023-05-16T02:08:08.518Z,11.70
2023-05-16T02:10:36.232Z,11.80
2023-05-16T02:13:03.859Z,11.80
2023-05-16T02:15:31.612Z,11.80
2023-05-16T02:18:00.344Z,11.90
2023-05-16T02:20:28.072Z,11.90
2023-05-16T02:22:56.093Z,11.90
2023-05-16T02:25:24.459Z,11.90
2023-05-16T02:27:52.311Z,11.90
2023-05-16T02:30:20.279Z,11.90
2023-05-16T02:32:49.271Z,11.90
2023-05-16T02:35:18.277Z,11.90
2023-05-16T02:37:46.052Z,11.80
2023-05-16T02:40:14.191Z,11.80
2023-05-16T02:42:42.096Z,11.90
2023-05-16T02:45:10.416Z,11.90
2023-05-16T02:47:38.124Z,11.80
2023-05-16T02:50:07.103Z,11.80
2023-05-16T02:52:35.774Z,11.70
2023-05-16T02:55:21.040Z,11.70
2023-05-16T02:57:51.131Z,11.70
2023-05-16T03:00:19.866Z,11.70
2023-05-16T03:02:48.130Z,11.70
2023-05-16T03:05:15.886Z,11.70
2023-05-16T03:07:43.649Z,11.60
2023-05-16T03:10:11.569Z,11.60
2023-05-16T03:12:39.465Z,11.60
2023-05-16T03:15:09.369Z,11.70
2023-05-16T03:17:37.649Z,11.70
2023-05-16T03:20:09.590Z,11.60
2023-05-16T03:22:37.361Z,11.60
2023-05-16T03:25:05.395Z,11.80
2023-05-16T03:27:33.087Z,11.90
2023-05-16T03:30:00.768Z,12.00
2023-05-16T03:32:28.673Z,12.00
2023-05-16T03:34:56.357Z,12.00
2023-05-16T03:37:24.287Z,12.00
2023-05-16T03:39:52.060Z,11.90
2023-05-16T03:42:20.111Z,11.80
2023-05-16T03:44:47.781Z,11.70
2023-05-16T03:47:16.216Z,11.70
2023-05-16T03:49:43.832Z,11.60
2023-05-16T03:52:11.469Z,11.60
2023-05-16T03:54:39.065Z,11.60
2023-05-16T03:57:06.722Z,11.60
2023-05-16T03:59:34.731Z,11.50
2023-05-16T04:02:02.491Z,11.50
2023-05-16T04:04:30.405Z,11.60
2023-05-16T04:06:58.201Z,11.60
2023-05-16T04:09:25.839Z,11.60
2023-05-16T04:11:53.426Z,11.70
2023-05-16T04:14:21.011Z,11.60
2023-05-16T04:16:48.683Z,11.60
2023-05-16T04:19:16.532Z,11.70
2023-05-16T04:21:44.269Z,11.80
2023-05-16T04:24:11.942Z,11.80
2023-05-16T04:26:39.614Z,11.90
2023-05-16T04:29:07.294Z,11.90
2023-05-16T04:31:34.997Z,12.00
2023-05-16T04:34:02.816Z,12.00
2023-05-16T04:36:31.688Z,12.00
2023-05-16T04:38:59.329Z,12.10
2023-05-16T04:41:26.938Z,12.20
2023-05-16T04:43:54.794Z,12.30
2023-05-16T04:46:22.580Z,12.40
2023-05-16T04:48:50.369Z,12.40
2023-05-16T04:51:18.236Z,12.50
2023-05-16T04:53:45.876Z,12.50
2023-05-16T04:56:13.686Z,12.50
2023-05-16T04:58:42.892Z,12.60
2023-05-16T05:01:11.009Z,12.50
2023-05-16T05:03:38.672Z,12.50
2023-05-16T05:06:07.243Z,12.60
2023-05-16T05:08:35.028Z,12.50
2023-05-16T05:11:03.120Z,12.50
2023-05-16T05:13:30.974Z,12.50
2023-05-16T05:15:58.545Z,12.50
2023-05-16T05:18:26.280Z,12.50
2023-05-16T05:20:53.945Z,12.60
2023-05-16T05:23:22.314Z,12.60
2023-05-16T05:25:50.811Z,12.60
2023-05-16T05:28:18.983Z,12.70
2023-05-16T05:30:48.493Z,12.70
2023-05-16T05:33:21.111Z,12.70
2023-05-16T05:35:49.046Z,12.70
2023-05-16T05:38:16.728Z,12.80
2023-05-16T05:40:44.630Z,12.90
2023-05-16T05:43:12.584Z,12.80
2023-05-16T05:45:40.224Z,12.80
2023-05-16T05:48:08.921Z,12.80
2023-05-16T05:50:37.057Z,12.80
2023-05-16T05:53:04.729Z,12.80
2023-05-16T05:55:32.543Z,12.80
2023-05-16T05:58:00.328Z,12.80
2023-05-16T06:00:28.802Z,12.80
2023-05-16T06:02:56.810Z,12.80
2023-05-16T06:05:24.583Z,12.80
2023-05-16T06:07:52.287Z,12.80
2023-05-16T06:10:19.987Z,12.90
2023-05-16T06:12:47.828Z,12.80
2023-05-16T06:15:15.719Z,12.80
2023-05-16T06:17:43.426Z,12.80
2023-05-16T06:20:11.676Z,12.90
2023-05-16T06:22:39.348Z,12.90
2023-05-16T06:25:07.660Z,12.90
2023-05-16T06:27:35.410Z,13.00
2023-05-16T06:30:03.128Z,13.00
2023-05-16T06:32:32.636Z,12.90
2023-05-16T06:35:00.870Z,12.90
2023-05-16T06:37:28.480Z,12.90
2023-05-16T06:39:56.349Z,12.80
2023-05-16T06:42:24.431Z,12.80
2023-05-16T06:44:52.130Z,12.90
2023-05-16T06:47:19.817Z,12.90
2023-05-16T06:49:47.853Z,13.00
2023-05-16T06:52:15.766Z,13.10
2023-05-16T06:54:43.448Z,12.90
2023-05-16T06:57:11.208Z,12.70
2023-05-16T06:59:39.009Z,12.70
2023-05-16T07:02:07.235Z,12.70
2023-05-16T07:04:36.784Z,12.40
2023-05-16T07:07:05.178Z,12.50
2023-05-16T07:09:32.834Z,12.30
2023-05-16T07:12:00.563Z,12.30
2023-05-16T07:14:28.495Z,12.30
2023-05-16T07:16:56.420Z,12.30
2023-05-16T07:19:24.309Z,12.40
2023-05-16T07:21:53.825Z,12.40
2023-05-16T07:24:21.544Z,12.40
2023-05-16T07:26:49.237Z,12.30
2023-05-16T07:29:17.066Z,12.20
2023-05-16T07:31:44.874Z,12.20
2023-05-16T07:34:12.987Z,12.30
2023-05-16T07:36:41.249Z,12.30
2023-05-16T07:39:08.935Z,12.40
2023-05-16T07:41:36.688Z,12.40
2023-05-16T07:44:04.573Z,12.40
2023-05-16T07:46:32.407Z,12.40
2023-05-16T07:49:00.133Z,12.50
2023-05-16T07:51:28.993Z,12.50
2023-05-16T07:53:56.746Z,12.40
2023-05-16T07:56:24.531Z,12.40
2023-05-16T07:58:52.265Z,12.40
2023-05-16T08:01:21.458Z,12.50
2023-05-16T08:03:49.210Z,12.50
2023-05-16T08:06:17.062Z,12.50
2023-05-16T08:08:44.803Z,12.40
2023-05-16T08:11:12.616Z,12.60
2023-05-16T08:13:40.418Z,12.60
2023-05-16T08:16:08.508Z,12.60
2023-05-16T08:18:36.420Z,12.60
2023-05-16T08:21:04.581Z,12.60
2023-05-16T08:23:32.318Z,12.60
2023-05-16T08:26:00.106Z,12.50
2023-05-16T08:28:28.005Z,12.60
2023-05-16T08:30:55.780Z,12.70
2023-05-16T08:33:23.886Z,12.70
2023-05-16T08:35:54.844Z,12.70
2023-05-16T08:38:22.649Z,12.60
2023-05-16T08:40:50.608Z,12.70
2023-05-16T08:43:18.669Z,12.70
2023-05-16T08:45:46.460Z,12.60
2023-05-16T08:48:16.126Z,12.70
2023-05-16T08:50:44.180Z,12.70
2023-05-16T08:53:17.066Z,12.80
2023-05-16T08:55:45.994Z,12.70
2023-05-16T08:58:14.917Z,12.70
2023-05-16T09:00:42.982Z,12.70
2023-05-16T09:03:11.613Z,12.80
2023-05-16T09:05:39.949Z,12.80
2023-05-16T09:08:07.767Z,12.80
2023-05-16T09:10:35.587Z,12.80
2023-05-16T09:13:04.146Z,12.90
2023-05-16T09:15:33.503Z,12.90
2023-05-16T09:18:03.188Z,12.80
2023-05-16T09:20:31.506Z,12.90
2023-05-16T09:23:00.429Z,13.00
2023-05-16T09:25:31.985Z,13.00
2023-05-16T09:28:02.724Z,13.00
2023-05-16T09:30:35.256Z,13.00
2023-05-16T09:33:03.395Z,12.90
2023-05-16T09:38:02.583Z,12.90
2023-05-16T09:40:30.672Z,13.00
2023-05-16T09:43:06.447Z,13.00
2023-05-16T09:45:35.500Z,13.00
2023-05-16T09:48:08.436Z,13.10
2023-05-16T09:50:37.840Z,13.10
2023-05-16T09:53:06.170Z,13.10
2023-05-16T09:55:34.615Z,13.20
2023-05-16T09:58:02.339Z,13.20
2023-05-16T10:00:32.296Z,13.10
2023-05-16T10:03:04.712Z,13.10
2023-05-16T10:05:33.003Z,13.20
2023-05-16T10:08:04.052Z,13.30
2023-05-16T10:10:36.397Z,13.20
2023-05-16T10:13:07.356Z,13.20
2023-05-16T10:15:38.328Z,13.20
2023-05-16T10:18:12.074Z,13.30
2023-05-16T10:20:42.884Z,13.20
2023-05-16T10:23:16.938Z,13.30
2023-05-16T10:25:46.148Z,13.30
2023-05-16T10:28:16.456Z,13.30
2023-05-16T10:30:46.493Z,13.30
2023-05-16T10:33:16.293Z,13.40
2023-05-16T10:35:44.792Z,13.40
2023-05-16T10:38:18.734Z,13.40
2023-05-16T10:40:48.107Z,13.40
2023-05-16T10:43:27.519Z,13.40
2023-05-16T10:45:56.939Z,13.40
2023-05-16T10:48:35.949Z,13.40
2023-05-16T10:51:05.838Z,13.40
2023-05-16T10:53:37.714Z,13.40
2023-05-16T10:56:07.943Z,13.50
2023-05-16T10:58:42.584Z,13.40
2023-05-16T11:01:43.843Z,13.50
2023-05-16T11:04:11.979Z,13.50
2023-05-16T11:06:42.808Z,13.50
2023-05-16T11:09:16.393Z,13.50
2023-05-16T11:11:49.526Z,13.50
2023-05-16T11:14:42.418Z,13.60
2023-05-16T11:17:11.782Z,13.60
2023-05-16T11:20:11.104Z,13.60
2023-05-16T11:22:41.908Z,13.70
2023-05-16T11:25:10.915Z,13.70
2023-05-16T11:27:47.059Z,13.70
2023-05-16T11:30:17.891Z,13.70
2023-05-16T11:32:48.093Z,13.70
2023-05-16T11:35:18.020Z,13.70
2023-05-16T11:37:47.835Z,13.80
2023-05-16T11:40:17.362Z,13.70
2023-05-16T11:42:50.405Z,13.70
2023-05-16T11:45:20.526Z,13.70
2023-05-16T11:47:49.909Z,13.70
2023-05-16T11:50:19.944Z,13.70
2023-05-16T11:52:50.543Z,13.80
2023-05-16T11:55:36.829Z,13.80
2023-05-16T11:58:10.337Z,13.80
2023-05-16T12:00:48.928Z,13.80
2023-05-16T12:03:18.805Z,13.80
2023-05-16T12:06:01.004Z,13.80
2023-05-16T12:08:28.695Z,13.80
2023-05-16T12:10:56.566Z,13.80
2023-05-16T12:13:25.290Z,13.80
2023-05-16T12:15:53.485Z,13.80
2023-05-16T12:18:21.993Z,13.80
2023-05-16T12:20:50.108Z,13.90
2023-05-16T12:23:17.781Z,13.90
2023-05-16T12:25:49.558Z,13.90
2023-05-16T12:28:17.403Z,13.90
2023-05-16T12:30:48.067Z,13.90
2023-05-16T12:33:17.262Z,13.90
2023-05-16T12:35:47.432Z,13.90
2023-05-16T12:38:17.471Z,13.90
2023-05-16T12:40:45.816Z,13.90
2023-05-16T12:43:19.806Z,13.90
2023-05-16T12:45:52.972Z,13.90
2023-05-16T12:48:22.073Z,13.90
2023-05-16T12:50:50.189Z,14.00
2023-05-16T12:53:19.128Z,13.90
2023-05-16T12:55:47.062Z,13.90
2023-05-16T12:58:14.808Z,13.90
2023-05-16T13:00:43.101Z,13.90
2023-05-16T13:03:10.902Z,13.90
2023-05-16T13:05:38.704Z,13.90
2023-05-16T13:08:06.426Z,13.90
2023-05-16T13:10:34.034Z,13.90
2023-05-16T13:13:01.992Z,14.00
2023-05-16T13:15:29.954Z,14.00
2023-05-16T13:17:57.945Z,14.00
2023-05-16T13:20:25.968Z,14.00
2023-05-16T13:22:53.727Z,14.00
2023-05-16T13:25:21.628Z,14.10
2023-05-16T13:27:49.532Z,14.10
2023-05-16T13:30:17.278Z,14.10
2023-05-16T13:32:44.976Z,14.10
2023-05-16T13:35:13.564Z,14.10
2023-05-16T13:37:41.623Z,14.10
2023-05-16T13:40:13.098Z,14.10
2023-05-16T13:42:41.576Z,14.10
2023-05-16T13:45:09.889Z,14.10
2023-05-16T13:47:37.932Z,14.00
2023-05-16T13:50:09.496Z,14.00
2023-05-16T13:52:38.651Z,14.00
2023-05-16T13:55:08.286Z,14.00
2023-05-16T13:57:36.710Z,14.00
2023-05-16T14:02:53.673Z,14.00
2023-05-16T14:05:21.826Z,14.00
2023-05-16T14:07:49.507Z,14.10
2023-05-16T14:10:17.152Z,14.10
2023-05-16T14:12:44.867Z,14.20
2023-05-16T14:15:12.601Z,14.20
2023-05-16T14:17:40.382Z,14.20
2023-05-16T14:20:10.623Z,14.20
2023-05-16T14:22:38.685Z,14.10
2023-05-16T14:25:07.357Z,14.20
2023-05-16T14:27:35.162Z,14.20
2023-05-16T14:30:03.006Z,14.20
2023-05-16T14:32:32.097Z,14.10
2023-05-16T14:34:59.988Z,14.20
2023-05-16T14:37:28.222Z,14.20
2023-05-16T14:39:57.386Z,14.10
2023-05-16T14:42:25.179Z,14.20
2023-05-16T14:44:53.082Z,14.20
2023-05-16T14:47:20.756Z,14.20
2023-05-16T14:49:48.416Z,14.20
2023-05-16T14:52:16.251Z,14.20
2023-05-16T14:54:44.045Z,14.20
2023-05-16T14:57:11.937Z,14.30
2023-05-16T14:59:39.776Z,14.30
2023-05-16T15:02:07.665Z,14.30
2023-05-16T15:04:35.662Z,14.30
2023-05-16T15:07:03.677Z,14.30
2023-05-16T15:09:31.427Z,14.30
2023-05-16T15:11:59.257Z,14.30
2023-05-16T15:14:27.437Z,14.40
2023-05-16T15:16:55.276Z,14.30
2023-05-16T15:19:23.129Z,14.30
2023-05-16T15:21:51.238Z,14.40
2023-05-16T15:24:18.952Z,14.40
2023-05-16T15:26:46.867Z,14.40
2023-05-16T15:29:14.558Z,14.30
2023-05-16T15:31:42.188Z,14.30
2023-05-16T15:34:09.944Z,14.20
2023-05-16T15:36:38.609Z,14.20
2023-05-16T15:39:06.338Z,14.20
2023-05-16T15:41:56.885Z,14.30
2023-05-16T15:44:22.026Z,14.30
2023-05-16T15:46:49.977Z,14.20
2023-05-16T15:49:17.553Z,14.30
2023-05-16T15:51:45.242Z,14.30
2023-05-16T15:54:12.873Z,14.20
2023-05-16T15:56:40.777Z,14.20
2023-05-16T15:59:08.474Z,14.20
2023-05-16T16:01:36.556Z,14.30
2023-05-16T16:04:04.343Z,14.30
2023-05-16T16:06:32.549Z,14.20
2023-05-16T16:09:00.393Z,14.20
2023-05-16T16:11:28.384Z,14.10
2023-05-16T16:13:56.146Z,14.10
2023-05-16T16:16:23.815Z,14.20
2023-05-16T16:18:51.544Z,14.20
2023-05-16T16:21:19.455Z,14.10
2023-05-16T16:23:47.158Z,14.10
2023-05-16T16:26:15.117Z,14.20
2023-05-16T16:28:43.209Z,14.10
2023-05-16T16:31:11.254Z,14.20
2023-05-16T16:33:39.018Z,14.10
2023-05-16T16:36:07.041Z,14.10
2023-05-16T16:38:35.143Z,14.00
2023-05-16T16:41:02.775Z,14.00
2023-05-16T16:43:30.581Z,14.10
2023-05-16T16:45:58.228Z,14.10
2023-05-16T16:48:26.427Z,14.00
2023-05-16T16:50:54.416Z,14.00
2023-05-16T16:53:22.627Z,14.00
2023-05-16T16:55:50.550Z,14.00
2023-05-16T16:58:18.327Z,14.10
2023-05-16T17:00:46.342Z,14.10
2023-05-16T17:03:14.079Z,14.10
2023-05-16T17:05:42.601Z,14.00
2023-05-16T17:08:10.558Z,14.00
2023-05-16T17:10:39.158Z,14.10
2023-05-16T17:13:10.531Z,14.00
2023-05-16T17:15:38.758Z,14.10
2023-05-16T17:18:07.745Z,14.00
2023-05-16T17:20:36.417Z,14.00
2023-05-16T17:23:04.424Z,14.10
2023-05-16T17:25:32.707Z,14.10
2023-05-16T17:28:00.432Z,14.10
2023-05-16T17:30:28.106Z,14.10
2023-05-16T17:32:56.107Z,14.00
2023-05-16T17:35:25.960Z,14.10
2023-05-16T17:37:54.159Z,14.10
2023-05-16T17:40:25.115Z,14.10
2023-05-16T17:42:52.905Z,14.00
2023-05-16T17:45:20.600Z,14.10
2023-05-16T17:47:48.802Z,14.00
2023-05-16T17:50:16.797Z,14.00
2023-05-16T17:52:44.785Z,14.10
2023-05-16T17:55:13.595Z,14.10
2023-05-16T17:57:41.534Z,14.10
2023-05-16T18:00:09.636Z,14.10
2023-05-16T18:02:39.622Z,14.10
2023-05-16T18:05:07.728Z,14.10
2023-05-16T18:07:36.745Z,14.00
2023-05-16T18:10:05.083Z,14.10
2023-05-16T18:12:33.120Z,14.10
2023-05-16T18:15:01.246Z,14.00
2023-05-16T18:17:29.667Z,14.00
2023-05-16T18:19:58.967Z,14.10
2023-05-16T18:22:27.914Z,14.10
2023-05-16T18:24:55.802Z,14.00
2023-05-16T18:27:23.664Z,14.10
2023-05-16T18:29:51.727Z,14.10
2023-05-16T18:32:20.988Z,14.10
2023-05-16T18:34:48.959Z,14.10
2023-05-16T18:37:20.232Z,14.10
2023-05-16T18:39:51.279Z,14.20
2023-05-16T18:42:19.254Z,14.10
2023-05-16T18:44:47.407Z,14.10
2023-05-16T18:47:16.480Z,14.10
2023-05-16T18:49:44.598Z,14.10
2023-05-16T18:52:13.078Z,14.10
2023-05-16T18:54:41.115Z,14.10
2023-05-16T18:57:09.217Z,14.10
2023-05-16T18:59:40.178Z,14.10
2023-05-16T19:02:08.653Z,14.10
2023-05-16T19:04:37.429Z,14.10
2023-05-16T19:07:07.915Z,14.10
2023-05-16T19:09:37.168Z,14.10
2023-05-16T19:12:05.461Z,14.10
2023-05-16T19:14:33.433Z,14.10
2023-05-16T19:17:01.156Z,14.10
2023-05-16T19:19:29.936Z,14.10
2023-05-16T19:21:59.269Z,14.20
2023-05-16T19:24:27.339Z,14.20
2023-05-16T19:26:55.471Z,14.20
2023-05-16T19:29:24.001Z,14.10
2023-05-16T19:31:52.232Z,14.20
2023-05-16T19:34:21.414Z,14.20
2023-05-16T19:36:49.181Z,14.10
2023-05-16T19:39:17.264Z,14.10
2023-05-16T19:41:47.673Z,14.00
2023-05-16T19:44:20.709Z,14.00
2023-05-16T19:46:48.410Z,14.00
2023-05-16T19:49:19.557Z,14.00
2023-05-16T19:51:47.908Z,14.10
2023-05-16T19:54:15.864Z,14.00
2023-05-16T19:56:43.499Z,14.10
2023-05-16T19:59:11.238Z,14.10
2023-05-16T20:04:11.886Z,14.10
2023-05-16T20:06:39.823Z,14.10
2023-05-16T20:09:07.589Z,14.10
2023-05-16T20:11:35.916Z,14.20
2023-05-16T20:14:04.151Z,14.10
2023-05-16T20:16:32.633Z,14.10
2023-05-16T20:19:00.394Z,14.10
2023-05-16T20:21:28.159Z,14.10
2023-05-16T20:23:56.148Z,14.20
2023-05-16T20:26:23.884Z,14.20
2023-05-16T20:28:51.515Z,14.20
2023-05-16T20:31:19.188Z,14.10
2023-05-16T20:33:47.154Z,14.10
2023-05-16T20:36:15.311Z,14.20
2023-05-16T20:38:43.005Z,14.20
2023-05-16T20:41:11.002Z,14.20
2023-05-16T20:43:38.792Z,14.20
2023-05-16T20:46:06.503Z,14.20
2023-05-16T20:48:34.224Z,14.20
2023-05-16T20:51:02.293Z,14.20
2023-05-16T20:53:29.974Z,14.10
2023-05-16T20:55:57.714Z,14.20
2023-05-16T20:58:25.384Z,14.10
2023-05-16T21:00:53.117Z,14.10
2023-05-16T21:03:39.263Z,14.20
2023-05-16T21:06:07.107Z,14.20
2023-05-16T21:08:35.106Z,14.10
2023-05-16T21:11:03.541Z,14.20
2023-05-16T21:13:31.540Z,14.20
2023-05-16T21:15:59.173Z,14.10
2023-05-16T21:18:27.067Z,14.20
2023-05-16T21:20:55.060Z,14.10
2023-05-16T21:23:22.779Z,14.20
2023-05-16T21:25:50.893Z,14.10
2023-05-16T21:28:18.777Z,14.10
2023-05-16T21:30:46.422Z,14.20
2023-05-16T21:33:14.212Z,14.10
2023-05-16T21:35:41.943Z,14.20
2023-05-16T21:38:09.780Z,14.20
2023-05-16T21:40:37.493Z,14.20
2023-05-16T21:43:05.143Z,14.10
2023-05-16T21:45:32.896Z,14.20
2023-05-16T21:48:00.638Z,14.10
2023-05-16T21:50:28.637Z,14.20
2023-05-16T21:52:56.690Z,14.20
2023-05-16T21:55:24.668Z,14.20
2023-05-16T21:57:52.309Z,14.20
2023-05-16T22:00:20.285Z,14.20
2023-05-16T22:02:48.857Z,14.20
2023-05-16T22:05:19.470Z,14.20
2023-05-16T22:07:47.186Z,14.20
2023-05-16T22:10:16.791Z,14.20
2023-05-16T22:12:44.517Z,14.20
2023-05-16T22:15:12.212Z,14.10
2023-05-16T22:17:41.860Z,14.10
2023-05-16T22:20:10.149Z,14.20
2023-05-16T22:22:37.894Z,14.10
2023-05-16T22:25:06.042Z,14.10
2023-05-16T22:27:33.713Z,14.10
2023-05-16T22:30:01.343Z,14.10
2023-05-16T22:32:29.235Z,14.10
2023-05-16T22:34:57.304Z,14.10
2023-05-16T22:37:25.154Z,14.20
2023-05-16T22:39:53.863Z,14.10
2023-05-16T22:42:21.994Z,14.20
2023-05-16T22:44:50.252Z,14.20
2023-05-16T22:47:17.954Z,14.20
2023-05-16T22:49:45.710Z,14.20
2023-05-16T22:52:13.476Z,14.20
2023-05-16T22:54:41.820Z,14.20
2023-05-16T22:57:09.520Z,14.20
2023-05-16T22:59:37.251Z,14.30
2023-05-16T23:02:05.000Z,14.20
2023-05-16T23:04:32.796Z,14.20
2023-05-16T23:07:01.337Z,14.20
2023-05-16T23:09:29.098Z,14.20
2023-05-16T23:11:56.763Z,14.30
2023-05-16T23:14:24.403Z,14.20
2023-05-16T23:16:52.050Z,14.20
2023-05-16T23:19:19.981Z,14.20
2023-05-16T23:21:47.735Z,14.20
2023-05-16T23:24:15.457Z,14.20
2023-05-16T23:26:43.119Z,14.20
2023-05-16T23:29:10.842Z,14.20
2023-05-16T23:31:38.640Z,14.20
2023-05-16T23:34:06.479Z,14.20
2023-05-16T23:36:34.275Z,14.20
2023-05-16T23:39:01.960Z,14.20
2023-05-16T23:41:29.946Z,14.20
2023-05-16T23:43:57.676Z,14.30
2023-05-16T23:46:25.436Z,14.20
2023-05-16T23:48:53.152Z,14.20
2023-05-16T23:51:21.824Z,14.20
2023-05-16T23:53:49.757Z,14.20
2023-05-16T23:56:17.554Z,14.20
2023-05-16T23:58:45.191Z,14.20
